TAF SELT
SELT 090425Z 0906/1006 VRB03KT 9999 FEW010 BKN030 BECMG 0912/0914 SCT023 SCT100 BECMG 0916/0918 18012KT BKN030 SCT100 BECMG 1000/1002 21005KT TX18/0919Z TN08/0911Z=
METAR SELT
WC SELT
WS SELT
WV SELT